createdAt,value
2022-12-26T00:00:59.776Z,0
2022-12-26T00:06:40.989Z,0
2022-12-26T00:12:11.205Z,0
2022-12-26T00:17:43.856Z,0
2022-12-26T00:23:07.869Z,0
2022-12-26T00:28:54.262Z,0
2022-12-26T00:34:19.962Z,0
2022-12-26T00:39:51.994Z,0
2022-12-26T00:45:28.877Z,0
2022-12-26T00:50:50.462Z,0
2022-12-26T00:56:08.396Z,0
2022-12-26T01:02:07.166Z,0
2022-12-26T01:07:21.794Z,0
2022-12-26T01:13:05.707Z,0
2022-12-26T01:18:36.052Z,0
2022-12-26T01:24:15.886Z,0
2022-12-26T01:29:43.542Z,0
2022-12-26T01:34:54.945Z,0
2022-12-26T01:40:35.378Z,0
2022-12-26T01:46:13.717Z,0
2022-12-26T01:51:50.036Z,0
2022-12-26T01:57:24.380Z,0
2022-12-26T02:02:45.432Z,0
2022-12-26T02:08:08.659Z,0
2022-12-26T02:13:51.565Z,0
2022-12-26T02:19:21.289Z,0
2022-12-26T02:24:46.583Z,0
2022-12-26T02:30:15.251Z,0
2022-12-26T02:35:49.579Z,0
2022-12-26T02:41:30.357Z,0
2022-12-26T02:47:01.877Z,0
2022-12-26T02:52:44.908Z,0
2022-12-26T02:58:01.839Z,0
2022-12-26T03:03:39.584Z,0
2022-12-26T03:08:59.021Z,0
2022-12-26T03:14:54.146Z,0
2022-12-26T03:20:02.505Z,0
2022-12-26T03:25:46.820Z,0
2022-12-26T03:31:10.303Z,0
2022-12-26T03:37:01.615Z,0
2022-12-26T03:42:33.102Z,0
2022-12-26T03:47:57.518Z,0
2022-12-26T03:53:11.964Z,0
2022-12-26T03:59:10.339Z,0
2022-12-26T04:04:14.350Z,0
2022-12-26T04:10:12.446Z,0
2022-12-26T04:15:23.401Z,0
2022-12-26T04:21:16.685Z,0
2022-12-26T04:26:27.994Z,0
2022-12-26T04:32:04.318Z,0
2022-12-26T04:37:43.749Z,0
2022-12-26T04:43:46.344Z,0
2022-12-26T04:48:51.679Z,0
2022-12-26T04:54:27.258Z,0
2022-12-26T04:59:53.983Z,0
2022-12-26T05:05:06.287Z,0
2022-12-26T05:11:03.719Z,0
2022-12-26T05:16:17.777Z,0
2022-12-26T05:21:46.040Z,0
2022-12-26T05:27:36.457Z,0
2022-12-26T05:33:00.129Z,2.4
2022-12-26T05:38:23.907Z,0
2022-12-26T05:44:00.578Z,0
2022-12-26T05:49:35.373Z,0
2022-12-26T05:54:59.490Z,0
2022-12-26T06:00:41.319Z,3.6
2022-12-26T06:06:02.729Z,4.8
2022-12-26T06:11:52.019Z,4.8
2022-12-26T06:17:16.560Z,2.4
2022-12-26T06:23:02.511Z,0
2022-12-26T06:28:13.127Z,0
2022-12-26T06:34:08.079Z,0
2022-12-26T06:39:21.960Z,0
2022-12-26T06:44:50.762Z,0
2022-12-26T06:50:28.099Z,0
2022-12-26T06:56:02.032Z,0
2022-12-26T07:01:19.232Z,0
2022-12-26T07:07:04.556Z,0
2022-12-26T07:12:47.453Z,0
2022-12-26T07:18:22.592Z,0
2022-12-26T07:23:27.729Z,0
2022-12-26T07:29:20.139Z,0
2022-12-26T07:34:56.962Z,0
2022-12-26T07:40:02.963Z,0
2022-12-26T07:45:52.333Z,0
2022-12-26T07:51:24.198Z,0
2022-12-26T07:57:15.405Z,0
2022-12-26T08:02:29.858Z,2.4
2022-12-26T08:07:47.936Z,3.6
2022-12-26T08:13:42.516Z,3.6
2022-12-26T08:18:48.668Z,2.4
2022-12-26T08:24:36.419Z,0
2022-12-26T08:30:08.326Z,4.8
2022-12-26T08:41:14.923Z,5.9
2022-12-26T08:46:51.717Z,7.2
2022-12-26T08:52:02.283Z,7.2
2022-12-26T08:57:48.833Z,7.2
2022-12-26T09:03:30.028Z,8.4
2022-12-26T09:09:09.039Z,10.7
2022-12-26T09:14:37.746Z,8.4
2022-12-26T09:19:58.983Z,8.4
2022-12-26T09:25:36.655Z,11.9
2022-12-26T09:31:06.629Z,10.7
2022-12-26T09:36:31.395Z,10.7
2022-12-26T09:42:20.152Z,10.7
2022-12-26T09:48:06.421Z,10.7
2022-12-26T09:53:34.880Z,9.6
2022-12-26T09:58:48.901Z,9.6
2022-12-26T10:04:29.396Z,8.4
2022-12-26T10:10:16.156Z,9.6
2022-12-26T10:15:40.674Z,9.6
2022-12-26T10:21:18.891Z,8.4
2022-12-26T10:26:49.861Z,10.7
2022-12-26T10:32:10.647Z,8.4
2022-12-26T10:37:49.717Z,7.2
2022-12-26T10:43:25.318Z,7.2
2022-12-26T10:49:09.800Z,7.2
2022-12-26T10:54:30.051Z,8.4
2022-12-26T11:00:09.643Z,9.6
2022-12-26T11:05:57.292Z,9.6
2022-12-26T11:11:08.386Z,8.4
2022-12-26T11:16:47.100Z,8.4
2022-12-26T11:22:21.467Z,5.9
2022-12-26T11:27:58.232Z,8.4
2022-12-26T11:33:19.353Z,8.4
2022-12-26T11:39:02.616Z,5.9
2022-12-26T11:44:36.013Z,4.8
2022-12-26T11:50:07.772Z,5.9
2022-12-26T11:55:20.279Z,7.2
2022-12-26T12:01:06.553Z,5.9
2022-12-26T12:06:34.525Z,7.2
2022-12-26T12:12:15.171Z,7.2
2022-12-26T12:17:48.657Z,5.9
2022-12-26T12:23:18.794Z,7.2
2022-12-26T12:28:46.499Z,4.8
2022-12-26T12:34:14.700Z,4.8
2022-12-26T12:39:47.858Z,7.2
2022-12-26T12:45:29.665Z,4.8
2022-12-26T12:50:50.549Z,5.9
2022-12-26T12:56:49.699Z,4.8
2022-12-26T13:02:15.424Z,5.9
2022-12-26T13:07:45.212Z,5.9
2022-12-26T13:13:09.223Z,5.9
2022-12-26T13:18:53.961Z,7.2
2022-12-26T13:24:30.179Z,7.2
2022-12-26T13:29:47.407Z,7.2
2022-12-26T13:35:31.046Z,5.9
2022-12-26T13:41:05.922Z,5.9
2022-12-26T13:46:30.076Z,5.9
2022-12-26T13:51:55.685Z,4.8
2022-12-26T13:57:36.808Z,5.9
2022-12-26T14:03:23.701Z,8.4
2022-12-26T14:08:39.809Z,5.9
2022-12-26T14:14:10.658Z,7.2
2022-12-26T14:20:00.309Z,4.8
2022-12-26T14:30:45.368Z,3.6
2022-12-26T14:36:17.992Z,2.4
2022-12-26T14:42:02.758Z,5.9
2022-12-26T14:47:39.603Z,4.8
2022-12-26T14:53:16.112Z,5.9
2022-12-26T14:58:45.495Z,7.2
2022-12-26T15:04:07.545Z,5.9
2022-12-26T15:09:46.735Z,7.2
2022-12-26T15:15:17.208Z,5.9
2022-12-26T15:21:06.277Z,8.4
2022-12-26T15:26:21.193Z,7.2
2022-12-26T15:31:54.351Z,5.9
2022-12-26T15:37:29.553Z,7.2
2022-12-26T15:43:09.428Z,7.2
2022-12-26T15:48:30.821Z,5.9
2022-12-26T15:54:14.926Z,4.8
2022-12-26T15:59:46.743Z,5.9
2022-12-26T16:05:24.997Z,4.8
2022-12-26T16:10:51.255Z,5.9
2022-12-26T16:16:27.214Z,5.9
2022-12-26T16:21:58.628Z,7.2
2022-12-26T16:27:25.131Z,10.7
2022-12-26T16:33:01.010Z,8.4
2022-12-26T16:38:45.505Z,7.2
2022-12-26T16:44:00.462Z,4.8
2022-12-26T16:49:49.880Z,8.4
2022-12-26T16:55:18.478Z,9.6
2022-12-26T17:06:19.296Z,5.9
2022-12-26T20:21:13.300Z,11.9
2022-12-26T20:38:05.650Z,11.9
2022-12-26T20:48:56.629Z,10.7
2022-12-26T20:54:53.276Z,13.2
2022-12-26T21:00:12.980Z,9.6
2022-12-26T21:05:42.720Z,10.7
2022-12-26T21:11:04.101Z,10.7
2022-12-26T21:16:46.139Z,9.6
2022-12-26T21:22:15.067Z,10.7
2022-12-26T21:27:59.535Z,11.9
2022-12-26T21:33:44.161Z,15.6
2022-12-26T21:39:15.444Z,19.2
2022-12-26T21:44:30.126Z,19.2
2022-12-26T21:50:02.032Z,18
2022-12-26T21:55:43.595Z,18
2022-12-26T22:01:03.570Z,18
2022-12-26T22:06:49.358Z,18
2022-12-26T22:12:17.551Z,18
2022-12-26T22:17:43.286Z,18
2022-12-26T22:23:26.656Z,15.6
2022-12-26T22:29:08.897Z,18
2022-12-26T22:34:22.485Z,14.4
2022-12-26T22:40:06.626Z,13.2
2022-12-26T22:45:28.701Z,11.9
2022-12-26T22:51:08.790Z,13.2
2022-12-26T22:56:45.569Z,11.9
2022-12-26T23:02:33.207Z,10.7
2022-12-26T23:07:51.113Z,9.6
2022-12-26T23:13:22.155Z,4.8
2022-12-26T23:18:48.920Z,9.6
2022-12-26T23:24:27.243Z,9.6
2022-12-26T23:29:51.967Z,5.9
2022-12-26T23:35:48.125Z,0
2022-12-26T23:41:11.222Z,10.7
2022-12-26T23:46:31.909Z,10.7
2022-12-26T23:52:15.675Z,8.4
2022-12-26T23:57:43.811Z,7.2
